»·PEaware :: N7791P KPAE-KBLI

N7791P :: KPAE-KBLI

FLIGHT INFORMATION

Flight Status: Arrived
Operator: Privately registered:
United States
More flights under this callsign
Pilot: Tom L. (6372)
Aircraft: PIPER PA-24 COMMANCHE
(PA24)
More flights by this aircraft type
Origin: KPAE Paine Field/Snohomish Co.
United States
Destination: KBLI Bellingham Intl
United States
More flights between these airports :: More routes between these airports
Route: +PAINE6 PAE V23 HUH
File this flight plan on PilotEdge
Remarks:
Altitude:
(Current/Filed)
4,000ft
Speed:
(Current/Filed)
145kts
Departed: 07-Oct-20 06:52 PM
Arrived: 07-Oct-20 07:35 PM
Distance/Time
Traveled:
54nm/0:43
Distance/Time
To Go:
Arrived

Flight Plot

Page will automatically refresh every two minutes.

Flight plan parsing failed; only flown route is shown


Map Options




Map Legend


Flown Route
Filed Route
Departure Airport
Arrival Airport
Navaid (VOR, NDB)
Fix

Horizontal Profiles

Position Reports

Time Latitude Longitude Heading Altitude Ground
Speed
07-Oct-20 18:30 47.900179 -122.280258 272 574ft 0kts
07-Oct-20 18:31 47.900179 -122.280258 272 574ft 0kts
07-Oct-20 18:32 47.900180 -122.280273 272 574ft 0kts
07-Oct-20 18:33 47.900180 -122.280283 273 574ft 0kts
07-Oct-20 18:34 47.900181 -122.280292 273 574ft 0kts
07-Oct-20 18:35 47.900181 -122.280301 273 574ft 0kts
07-Oct-20 18:36 47.900181 -122.280309 273 574ft 0kts
07-Oct-20 18:37 47.900182 -122.280317 274 574ft 0kts
07-Oct-20 18:38 47.900182 -122.280326 274 574ft 0kts
07-Oct-20 18:39 47.900183 -122.280334 274 574ft 0kts
07-Oct-20 18:40 47.900183 -122.280342 274 574ft 0kts
07-Oct-20 18:41 47.900184 -122.280351 275 574ft 0kts
07-Oct-20 18:42 47.900602 -122.280705 358 574ft 14kts
07-Oct-20 18:43 47.902778 -122.284168 7 574ft 16kts
07-Oct-20 18:44 47.906637 -122.283077 354 574ft 17kts
07-Oct-20 18:45 47.913435 -122.283389 355 574ft 30kts
07-Oct-20 18:46 47.919973 -122.284031 357 574ft 18kts
07-Oct-20 18:47 47.921279 -122.284072 352 574ft 4kts
07-Oct-20 18:48 47.921496 -122.284590 265 574ft 0kts
07-Oct-20 18:49 47.921495 -122.284612 265 574ft 0kts
07-Oct-20 18:50 47.921494 -122.284626 265 574ft 0kts
07-Oct-20 18:51 47.918637 -122.285599 178 574ft 58kts
07-Oct-20 18:52 47.890378 -122.285085 181 1477ft 117kts
07-Oct-20 18:53 47.855188 -122.287779 182 2100ft 153kts
07-Oct-20 18:54 47.809559 -122.294491 187 2008ft 163kts
07-Oct-20 18:55 47.772091 -122.312143 235 2886ft 135kts
07-Oct-20 18:56 47.787263 -122.351800 358 3748ft 146kts
07-Oct-20 18:57 47.826705 -122.322188 17 3986ft 161kts
07-Oct-20 18:58 47.871687 -122.300902 16 4004ft 174kts
07-Oct-20 18:59 47.917828 -122.279301 8 3992ft 170kts
07-Oct-20 19:00 47.963284 -122.290345 346 3999ft 165kts
07-Oct-20 19:01 48.008539 -122.303403 346 3998ft 164kts
07-Oct-20 19:02 48.053482 -122.316415 346 3999ft 164kts
07-Oct-20 19:03 48.098649 -122.329510 346 3997ft 164kts
07-Oct-20 19:04 48.143619 -122.342568 346 3997ft 164kts
07-Oct-20 19:06 48.188697 -122.355681 346 3995ft 164kts
07-Oct-20 19:07 48.233625 -122.368770 346 3994ft 164kts
07-Oct-20 19:08 48.278584 -122.381885 346 3993ft 165kts
07-Oct-20 19:09 48.323919 -122.395159 347 3989ft 166kts
07-Oct-20 19:10 48.369101 -122.408386 346 3997ft 165kts
07-Oct-20 19:11 48.414421 -122.421685 346 3993ft 165kts
07-Oct-20 19:12 48.459619 -122.434973 346 3990ft 165kts
07-Oct-20 19:13 48.503653 -122.444766 351 4329ft 150kts
07-Oct-20 19:14 48.543520 -122.452073 350 4942ft 140kts
07-Oct-20 19:15 48.581907 -122.459375 350 5513ft 143kts
07-Oct-20 19:16 48.625143 -122.467562 351 5482ft 164kts
07-Oct-20 19:17 48.670938 -122.476265 351 5473ft 166kts
07-Oct-20 19:18 48.717012 -122.485037 351 5468ft 166kts
07-Oct-20 19:19 48.762960 -122.493807 351 5461ft 166kts
07-Oct-20 19:19 48.801249 -122.501120 351 5459ft 166kts
07-Oct-20 19:21 48.854819 -122.511367 351 5460ft 165kts
07-Oct-20 19:22 48.900517 -122.520131 351 5460ft 165kts
07-Oct-20 19:23 48.946333 -122.528940 351 5460ft 165kts
07-Oct-20 19:24 48.992006 -122.537936 346 5457ft 165kts
07-Oct-20 19:24 49.022600 -122.567822 322 5451ft 152kts
07-Oct-20 19:26 49.052085 -122.574918 58 5451ft 149kts
07-Oct-20 19:26 49.035405 -122.541478 162 5474ft 139kts
07-Oct-20 19:27 48.997087 -122.533978 179 5462ft 139kts
07-Oct-20 19:28 48.958645 -122.539778 188 5459ft 139kts
07-Oct-20 19:29 48.919070 -122.535315 182 5207ft 152kts
07-Oct-20 19:30 48.883390 -122.538134 182 4304ft 110kts
07-Oct-20 19:31 48.852145 -122.537023 174 3026ft 112kts
07-Oct-20 19:32 48.827072 -122.537927 181 2207ft 69kts
07-Oct-20 19:33 48.806955 -122.537645 181 965ft 81kts
07-Oct-20 19:34 48.789212 -122.537497 182 174ft 0kts
07-Oct-20 19:35 48.789205 -122.537497 182 174ft 0kts

Navigation Log

Ident Type
Flight plan parsing failed, navigation log unavailable